sensor_id;sensor_type;location;lat;lon;timestamp;P1;durP1;ratioP1;P2;durP2;ratioP2
30303;SDS011;17112;48.636;10.152;2024-03-08T00:00:04;24.65;;;14.18;;
30303;SDS011;17112;48.636;10.152;2024-03-08T00:02:37;25.92;;;13.85;;
30303;SDS011;17112;48.636;10.152;2024-03-08T00:05:07;22.45;;;13.20;;
30303;SDS011;17112;48.636;10.152;2024-03-08T00:07:37;24.92;;;14.30;;
30303;SDS011;17112;48.636;10.152;2024-03-08T00:10:04;24.70;;;14.45;;
30303;SDS011;17112;48.636;10.152;2024-03-08T00:12:30;22.63;;;14.27;;
30303;SDS011;17112;48.636;10.152;2024-03-08T00:14:56;21.15;;;13.30;;
30303;SDS011;17112;48.636;10.152;2024-03-08T00:17:22;27.10;;;14.15;;
30303;SDS011;17112;48.636;10.152;2024-03-08T00:19:48;21.70;;;13.20;;
30303;SDS011;17112;48.636;10.152;2024-03-08T00:22:15;23.08;;;14.38;;
30303;SDS011;17112;48.636;10.152;2024-03-08T00:24:41;21.50;;;13.10;;
30303;SDS011;17112;48.636;10.152;2024-03-08T00:27:07;24.48;;;14.07;;
30303;SDS011;17112;48.636;10.152;2024-03-08T00:29:34;26.25;;;14.98;;
30303;SDS011;17112;48.636;10.152;2024-03-08T00:32:00;23.60;;;13.95;;
30303;SDS011;17112;48.636;10.152;2024-03-08T00:34:26;21.15;;;13.70;;
30303;SDS011;17112;48.636;10.152;2024-03-08T00:36:51;22.65;;;14.10;;
30303;SDS011;17112;48.636;10.152;2024-03-08T00:39:17;24.13;;;14.07;;
30303;SDS011;17112;48.636;10.152;2024-03-08T00:41:45;24.02;;;15.35;;
30303;SDS011;17112;48.636;10.152;2024-03-08T00:44:12;24.75;;;13.95;;
30303;SDS011;17112;48.636;10.152;2024-03-08T00:46:38;23.02;;;14.15;;
30303;SDS011;17112;48.636;10.152;2024-03-08T00:49:03;21.75;;;13.85;;
30303;SDS011;17112;48.636;10.152;2024-03-08T00:51:29;26.83;;;13.60;;
30303;SDS011;17112;48.636;10.152;2024-03-08T00:53:55;22.35;;;13.15;;
30303;SDS011;17112;48.636;10.152;2024-03-08T00:56:20;22.08;;;12.60;;
30303;SDS011;17112;48.636;10.152;2024-03-08T00:58:46;22.67;;;13.13;;
30303;SDS011;17112;48.636;10.152;2024-03-08T01:01:13;21.30;;;13.30;;
30303;SDS011;17112;48.636;10.152;2024-03-08T01:03:42;22.70;;;13.65;;
30303;SDS011;17112;48.636;10.152;2024-03-08T01:06:08;21.27;;;13.27;;
30303;SDS011;17112;48.636;10.152;2024-03-08T01:08:34;25.55;;;13.85;;
30303;SDS011;17112;48.636;10.152;2024-03-08T01:11:03;22.48;;;13.60;;
30303;SDS011;17112;48.636;10.152;2024-03-08T01:13:30;21.85;;;12.80;;
30303;SDS011;17112;48.636;10.152;2024-03-08T01:15:56;25.98;;;14.10;;
30303;SDS011;17112;48.636;10.152;2024-03-08T01:18:21;26.88;;;14.40;;
30303;SDS011;17112;48.636;10.152;2024-03-08T01:20:47;20.60;;;13.35;;
30303;SDS011;17112;48.636;10.152;2024-03-08T01:23:13;26.15;;;14.07;;
30303;SDS011;17112;48.636;10.152;2024-03-08T01:25:39;26.88;;;13.98;;
30303;SDS011;17112;48.636;10.152;2024-03-08T01:28:06;26.35;;;13.07;;
30303;SDS011;17112;48.636;10.152;2024-03-08T01:30:32;23.63;;;14.30;;
30303;SDS011;17112;48.636;10.152;2024-03-08T01:33:00;25.60;;;14.27;;
30303;SDS011;17112;48.636;10.152;2024-03-08T01:35:25;26.88;;;14.82;;
30303;SDS011;17112;48.636;10.152;2024-03-08T01:37:52;27.95;;;15.52;;
30303;SDS011;17112;48.636;10.152;2024-03-08T01:40:18;22.15;;;13.70;;
30303;SDS011;17112;48.636;10.152;2024-03-08T01:42:44;24.38;;;14.25;;
30303;SDS011;17112;48.636;10.152;2024-03-08T01:45:09;26.02;;;14.68;;
30303;SDS011;17112;48.636;10.152;2024-03-08T01:47:35;26.30;;;14.35;;
30303;SDS011;17112;48.636;10.152;2024-03-08T01:50:02;25.92;;;14.43;;
30303;SDS011;17112;48.636;10.152;2024-03-08T01:52:31;26.33;;;14.25;;
30303;SDS011;17112;48.636;10.152;2024-03-08T01:54:59;25.67;;;14.27;;
30303;SDS011;17112;48.636;10.152;2024-03-08T01:57:27;22.85;;;14.25;;
30303;SDS011;17112;48.636;10.152;2024-03-08T01:59:53;25.17;;;15.50;;
30303;SDS011;17112;48.636;10.152;2024-03-08T02:02:20;24.67;;;14.80;;
30303;SDS011;17112;48.636;10.152;2024-03-08T02:04:47;26.05;;;15.10;;
30303;SDS011;17112;48.636;10.152;2024-03-08T02:07:13;24.48;;;14.38;;
30303;SDS011;17112;48.636;10.152;2024-03-08T02:09:39;30.52;;;15.77;;
30303;SDS011;17112;48.636;10.152;2024-03-08T02:12:05;24.58;;;14.95;;
30303;SDS011;17112;48.636;10.152;2024-03-08T02:14:31;24.50;;;14.25;;
30303;SDS011;17112;48.636;10.152;2024-03-08T02:17:01;24.55;;;14.27;;
30303;SDS011;17112;48.636;10.152;2024-03-08T02:19:27;26.33;;;15.02;;
30303;SDS011;17112;48.636;10.152;2024-03-08T02:21:53;29.30;;;14.40;;
30303;SDS011;17112;48.636;10.152;2024-03-08T02:24:18;24.17;;;14.80;;
30303;SDS011;17112;48.636;10.152;2024-03-08T02:26:44;28.08;;;15.52;;
30303;SDS011;17112;48.636;10.152;2024-03-08T02:29:10;25.23;;;14.48;;
30303;SDS011;17112;48.636;10.152;2024-03-08T02:31:36;27.58;;;14.57;;
30303;SDS011;17112;48.636;10.152;2024-03-08T02:34:04;24.23;;;13.95;;
30303;SDS011;17112;48.636;10.152;2024-03-08T02:36:30;26.55;;;14.35;;
30303;SDS011;17112;48.636;10.152;2024-03-08T02:38:59;24.10;;;15.23;;
30303;SDS011;17112;48.636;10.152;2024-03-08T02:41:27;25.33;;;15.20;;
30303;SDS011;17112;48.636;10.152;2024-03-08T02:43:53;22.95;;;14.15;;
30303;SDS011;17112;48.636;10.152;2024-03-08T02:46:20;24.95;;;15.80;;
30303;SDS011;17112;48.636;10.152;2024-03-08T02:48:46;28.13;;;15.07;;
30303;SDS011;17112;48.636;10.152;2024-03-08T02:51:12;26.30;;;15.93;;
30303;SDS011;17112;48.636;10.152;2024-03-08T02:53:38;27.60;;;15.73;;
30303;SDS011;17112;48.636;10.152;2024-03-08T02:56:04;26.73;;;15.63;;
30303;SDS011;17112;48.636;10.152;2024-03-08T02:58:33;26.00;;;15.10;;
30303;SDS011;17112;48.636;10.152;2024-03-08T03:00:59;31.98;;;15.68;;
30303;SDS011;17112;48.636;10.152;2024-03-08T03:03:25;28.17;;;15.45;;
30303;SDS011;17112;48.636;10.152;2024-03-08T03:05:51;28.40;;;15.00;;
30303;SDS011;17112;48.636;10.152;2024-03-08T03:08:20;29.10;;;14.40;;
30303;SDS011;17112;48.636;10.152;2024-03-08T03:10:46;28.73;;;16.42;;
30303;SDS011;17112;48.636;10.152;2024-03-08T03:13:12;25.75;;;14.70;;
30303;SDS011;17112;48.636;10.152;2024-03-08T03:15:39;25.52;;;15.23;;
30303;SDS011;17112;48.636;10.152;2024-03-08T03:18:07;28.77;;;16.95;;
30303;SDS011;17112;48.636;10.152;2024-03-08T03:20:33;27.85;;;15.43;;
30303;SDS011;17112;48.636;10.152;2024-03-08T03:23:05;25.08;;;15.20;;
30303;SDS011;17112;48.636;10.152;2024-03-08T03:25:34;26.83;;;14.63;;
30303;SDS011;17112;48.636;10.152;2024-03-08T03:28:02;28.75;;;14.93;;
30303;SDS011;17112;48.636;10.152;2024-03-08T03:30:29;24.65;;;15.48;;
30303;SDS011;17112;48.636;10.152;2024-03-08T03:32:59;25.50;;;15.13;;
30303;SDS011;17112;48.636;10.152;2024-03-08T03:35:31;27.00;;;15.05;;
30303;SDS011;17112;48.636;10.152;2024-03-08T03:37:57;26.17;;;15.10;;
30303;SDS011;17112;48.636;10.152;2024-03-08T03:40:41;25.60;;;14.98;;
30303;SDS011;17112;48.636;10.152;2024-03-08T03:43:07;25.08;;;15.10;;
30303;SDS011;17112;48.636;10.152;2024-03-08T03:45:34;26.80;;;15.75;;
30303;SDS011;17112;48.636;10.152;2024-03-08T03:48:03;27.17;;;15.05;;
30303;SDS011;17112;48.636;10.152;2024-03-08T03:50:31;26.05;;;14.70;;
30303;SDS011;17112;48.636;10.152;2024-03-08T03:52:59;30.33;;;15.73;;
30303;SDS011;17112;48.636;10.152;2024-03-08T03:55:25;26.55;;;15.38;;
30303;SDS011;17112;48.636;10.152;2024-03-08T03:57:52;28.58;;;16.05;;
30303;SDS011;17112;48.636;10.152;2024-03-08T04:00:17;28.27;;;16.33;;
30303;SDS011;17112;48.636;10.152;2024-03-08T04:02:43;27.58;;;15.50;;
30303;SDS011;17112;48.636;10.152;2024-03-08T04:05:10;28.70;;;16.95;;
30303;SDS011;17112;48.636;10.152;2024-03-08T04:07:37;25.95;;;15.93;;
30303;SDS011;17112;48.636;10.152;2024-03-08T04:10:03;24.60;;;15.15;;
30303;SDS011;17112;48.636;10.152;2024-03-08T04:12:34;32.45;;;16.25;;
30303;SDS011;17112;48.636;10.152;2024-03-08T04:14:59;26.88;;;15.70;;
30303;SDS011;17112;48.636;10.152;2024-03-08T04:17:25;28.67;;;16.73;;
30303;SDS011;17112;48.636;10.152;2024-03-08T04:19:51;29.77;;;17.40;;
30303;SDS011;17112;48.636;10.152;2024-03-08T04:22:17;32.17;;;17.10;;
30303;SDS011;17112;48.636;10.152;2024-03-08T04:24:44;26.75;;;15.30;;
30303;SDS011;17112;48.636;10.152;2024-03-08T04:27:10;30.42;;;16.35;;
30303;SDS011;17112;48.636;10.152;2024-03-08T04:29:36;28.70;;;16.92;;
30303;SDS011;17112;48.636;10.152;2024-03-08T04:32:03;26.33;;;16.27;;
30303;SDS011;17112;48.636;10.152;2024-03-08T04:34:29;30.05;;;16.35;;
30303;SDS011;17112;48.636;10.152;2024-03-08T04:36:59;28.38;;;16.63;;
30303;SDS011;17112;48.636;10.152;2024-03-08T04:39:25;28.50;;;16.48;;
30303;SDS011;17112;48.636;10.152;2024-03-08T04:41:53;33.35;;;16.73;;
30303;SDS011;17112;48.636;10.152;2024-03-08T04:44:24;29.42;;;16.52;;
30303;SDS011;17112;48.636;10.152;2024-03-08T04:46:50;28.88;;;16.73;;
30303;SDS011;17112;48.636;10.152;2024-03-08T04:49:15;27.70;;;15.75;;
30303;SDS011;17112;48.636;10.152;2024-03-08T04:51:41;31.08;;;16.42;;
30303;SDS011;17112;48.636;10.152;2024-03-08T04:54:10;33.75;;;16.67;;
30303;SDS011;17112;48.636;10.152;2024-03-08T04:56:35;28.23;;;16.35;;
30303;SDS011;17112;48.636;10.152;2024-03-08T04:59:01;31.35;;;17.42;;
30303;SDS011;17112;48.636;10.152;2024-03-08T05:01:27;28.92;;;16.90;;
30303;SDS011;17112;48.636;10.152;2024-03-08T05:03:53;31.65;;;17.88;;
30303;SDS011;17112;48.636;10.152;2024-03-08T05:06:20;30.27;;;16.83;;
30303;SDS011;17112;48.636;10.152;2024-03-08T05:08:46;31.15;;;17.63;;
30303;SDS011;17112;48.636;10.152;2024-03-08T05:11:12;29.25;;;16.98;;
30303;SDS011;17112;48.636;10.152;2024-03-08T05:13:40;28.27;;;16.90;;
30303;SDS011;17112;48.636;10.152;2024-03-08T05:16:06;30.35;;;17.55;;
30303;SDS011;17112;48.636;10.152;2024-03-08T05:18:33;29.52;;;17.42;;
30303;SDS011;17112;48.636;10.152;2024-03-08T05:20:59;29.35;;;17.13;;
30303;SDS011;17112;48.636;10.152;2024-03-08T05:23:25;29.40;;;17.77;;
30303;SDS011;17112;48.636;10.152;2024-03-08T05:25:50;31.67;;;18.42;;
30303;SDS011;17112;48.636;10.152;2024-03-08T05:28:16;34.97;;;18.73;;
30303;SDS011;17112;48.636;10.152;2024-03-08T05:30:42;30.70;;;17.13;;
30303;SDS011;17112;48.636;10.152;2024-03-08T05:33:07;28.33;;;17.38;;
30303;SDS011;17112;48.636;10.152;2024-03-08T05:35:39;30.20;;;17.73;;
30303;SDS011;17112;48.636;10.152;2024-03-08T05:38:05;29.42;;;16.67;;
30303;SDS011;17112;48.636;10.152;2024-03-08T05:40:32;28.75;;;17.33;;
30303;SDS011;17112;48.636;10.152;2024-03-08T05:42:58;28.27;;;16.92;;
30303;SDS011;17112;48.636;10.152;2024-03-08T05:45:26;29.98;;;18.15;;
30303;SDS011;17112;48.636;10.152;2024-03-08T05:47:52;26.95;;;17.92;;
30303;SDS011;17112;48.636;10.152;2024-03-08T05:50:18;30.77;;;17.35;;
30303;SDS011;17112;48.636;10.152;2024-03-08T05:52:44;32.15;;;18.63;;
30303;SDS011;17112;48.636;10.152;2024-03-08T05:55:10;31.40;;;18.13;;
30303;SDS011;17112;48.636;10.152;2024-03-08T05:57:39;32.50;;;17.60;;
30303;SDS011;17112;48.636;10.152;2024-03-08T06:00:05;32.33;;;18.42;;
30303;SDS011;17112;48.636;10.152;2024-03-08T06:02:31;31.88;;;18.45;;
30303;SDS011;17112;48.636;10.152;2024-03-08T06:04:58;30.77;;;16.88;;
30303;SDS011;17112;48.636;10.152;2024-03-08T06:07:23;31.83;;;18.10;;
30303;SDS011;17112;48.636;10.152;2024-03-08T06:09:49;29.63;;;16.80;;
30303;SDS011;17112;48.636;10.152;2024-03-08T06:12:15;29.75;;;17.63;;
30303;SDS011;17112;48.636;10.152;2024-03-08T06:14:44;30.42;;;16.40;;
30303;SDS011;17112;48.636;10.152;2024-03-08T06:17:10;30.27;;;17.42;;
30303;SDS011;17112;48.636;10.152;2024-03-08T06:19:36;32.40;;;17.35;;
30303;SDS011;17112;48.636;10.152;2024-03-08T06:22:02;30.20;;;16.83;;
30303;SDS011;17112;48.636;10.152;2024-03-08T06:24:30;29.23;;;16.10;;
30303;SDS011;17112;48.636;10.152;2024-03-08T06:26:57;30.98;;;16.40;;
30303;SDS011;17112;48.636;10.152;2024-03-08T06:29:22;31.92;;;16.92;;
30303;SDS011;17112;48.636;10.152;2024-03-08T06:31:48;34.17;;;16.23;;
30303;SDS011;17112;48.636;10.152;2024-03-08T06:34:14;28.75;;;16.23;;
30303;SDS011;17112;48.636;10.152;2024-03-08T06:36:40;26.83;;;14.73;;
30303;SDS011;17112;48.636;10.152;2024-03-08T06:39:06;29.95;;;15.88;;
30303;SDS011;17112;48.636;10.152;2024-03-08T06:41:37;28.88;;;16.88;;
30303;SDS011;17112;48.636;10.152;2024-03-08T06:44:03;29.08;;;15.68;;
30303;SDS011;17112;48.636;10.152;2024-03-08T06:46:29;30.65;;;16.75;;
30303;SDS011;17112;48.636;10.152;2024-03-08T06:48:54;29.25;;;16.83;;
30303;SDS011;17112;48.636;10.152;2024-03-08T06:51:21;28.73;;;16.45;;
30303;SDS011;17112;48.636;10.152;2024-03-08T06:53:46;29.00;;;17.65;;
30303;SDS011;17112;48.636;10.152;2024-03-08T06:56:12;32.10;;;15.98;;
30303;SDS011;17112;48.636;10.152;2024-03-08T06:58:38;30.77;;;16.95;;
30303;SDS011;17112;48.636;10.152;2024-03-08T07:01:05;35.95;;;17.83;;
30303;SDS011;17112;48.636;10.152;2024-03-08T07:03:32;31.10;;;17.35;;
30303;SDS011;17112;48.636;10.152;2024-03-08T07:05:58;27.90;;;16.15;;
30303;SDS011;17112;48.636;10.152;2024-03-08T07:08:24;27.70;;;15.73;;
30303;SDS011;17112;48.636;10.152;2024-03-08T07:10:52;29.88;;;17.38;;
30303;SDS011;17112;48.636;10.152;2024-03-08T07:13:18;31.63;;;17.17;;
30303;SDS011;17112;48.636;10.152;2024-03-08T07:15:44;28.92;;;16.88;;
30303;SDS011;17112;48.636;10.152;2024-03-08T07:18:10;32.80;;;17.98;;
30303;SDS011;17112;48.636;10.152;2024-03-08T07:20:39;29.77;;;16.73;;
30303;SDS011;17112;48.636;10.152;2024-03-08T07:23:05;33.97;;;17.20;;
30303;SDS011;17112;48.636;10.152;2024-03-08T07:25:31;36.63;;;17.55;;
30303;SDS011;17112;48.636;10.152;2024-03-08T07:27:57;30.75;;;16.70;;
30303;SDS011;17112;48.636;10.152;2024-03-08T07:30:23;31.60;;;17.45;;
30303;SDS011;17112;48.636;10.152;2024-03-08T07:33:09;32.22;;;17.20;;
30303;SDS011;17112;48.636;10.152;2024-03-08T07:35:38;30.50;;;17.33;;
30303;SDS011;17112;48.636;10.152;2024-03-08T07:38:05;32.70;;;17.13;;
30303;SDS011;17112;48.636;10.152;2024-03-08T07:40:38;31.00;;;16.52;;
30303;SDS011;17112;48.636;10.152;2024-03-08T07:45:35;30.60;;;15.95;;
30303;SDS011;17112;48.636;10.152;2024-03-08T07:48:04;33.42;;;18.58;;
30303;SDS011;17112;48.636;10.152;2024-03-08T07:50:35;32.50;;;17.30;;
30303;SDS011;17112;48.636;10.152;2024-03-08T07:53:02;33.50;;;18.23;;
30303;SDS011;17112;48.636;10.152;2024-03-08T07:55:28;32.95;;;18.33;;
30303;SDS011;17112;48.636;10.152;2024-03-08T07:57:56;32.80;;;18.75;;
30303;SDS011;17112;48.636;10.152;2024-03-08T08:00:22;37.20;;;19.95;;
30303;SDS011;17112;48.636;10.152;2024-03-08T08:02:49;34.67;;;19.33;;
30303;SDS011;17112;48.636;10.152;2024-03-08T08:05:15;36.47;;;19.17;;
30303;SDS011;17112;48.636;10.152;2024-03-08T08:07:46;35.83;;;19.13;;
30303;SDS011;17112;48.636;10.152;2024-03-08T08:10:12;37.60;;;19.33;;
30303;SDS011;17112;48.636;10.152;2024-03-08T08:12:57;37.05;;;18.13;;
30303;SDS011;17112;48.636;10.152;2024-03-08T08:15:23;37.97;;;19.48;;
30303;SDS011;17112;48.636;10.152;2024-03-08T08:17:49;32.80;;;18.13;;
30303;SDS011;17112;48.636;10.152;2024-03-08T08:20:16;33.90;;;18.83;;
30303;SDS011;17112;48.636;10.152;2024-03-08T08:22:43;37.05;;;19.30;;
30303;SDS011;17112;48.636;10.152;2024-03-08T08:25:09;41.70;;;21.88;;
30303;SDS011;17112;48.636;10.152;2024-03-08T08:27:38;39.00;;;20.10;;
30303;SDS011;17112;48.636;10.152;2024-03-08T08:30:05;33.72;;;19.17;;
30303;SDS011;17112;48.636;10.152;2024-03-08T08:32:33;39.65;;;20.30;;
30303;SDS011;17112;48.636;10.152;2024-03-08T08:35:01;39.40;;;20.10;;
30303;SDS011;17112;48.636;10.152;2024-03-08T08:37:27;35.70;;;19.05;;
30303;SDS011;17112;48.636;10.152;2024-03-08T08:39:53;35.53;;;19.48;;
30303;SDS011;17112;48.636;10.152;2024-03-08T08:42:19;35.70;;;19.42;;
30303;SDS011;17112;48.636;10.152;2024-03-08T08:44:45;39.63;;;19.50;;
30303;SDS011;17112;48.636;10.152;2024-03-08T08:47:11;39.55;;;20.02;;
30303;SDS011;17112;48.636;10.152;2024-03-08T08:49:38;38.03;;;20.08;;
30303;SDS011;17112;48.636;10.152;2024-03-08T08:52:04;33.80;;;18.52;;
30303;SDS011;17112;48.636;10.152;2024-03-08T08:54:30;45.72;;;21.58;;
30303;SDS011;17112;48.636;10.152;2024-03-08T08:56:56;36.13;;;19.63;;
30303;SDS011;17112;48.636;10.152;2024-03-08T08:59:22;35.65;;;19.38;;
30303;SDS011;17112;48.636;10.152;2024-03-08T09:01:50;42.70;;;19.15;;
30303;SDS011;17112;48.636;10.152;2024-03-08T09:04:18;36.72;;;20.13;;
30303;SDS011;17112;48.636;10.152;2024-03-08T09:06:44;38.72;;;20.85;;
30303;SDS011;17112;48.636;10.152;2024-03-08T09:09:10;40.55;;;20.30;;
30303;SDS011;17112;48.636;10.152;2024-03-08T09:11:38;36.72;;;19.98;;
30303;SDS011;17112;48.636;10.152;2024-03-08T09:14:07;42.53;;;19.67;;
30303;SDS011;17112;48.636;10.152;2024-03-08T09:16:37;38.75;;;19.40;;
30303;SDS011;17112;48.636;10.152;2024-03-08T09:19:02;41.58;;;20.52;;
30303;SDS011;17112;48.636;10.152;2024-03-08T09:21:28;35.78;;;19.15;;
30303;SDS011;17112;48.636;10.152;2024-03-08T09:23:54;36.45;;;20.30;;
30303;SDS011;17112;48.636;10.152;2024-03-08T09:26:20;38.67;;;20.15;;
30303;SDS011;17112;48.636;10.152;2024-03-08T09:28:47;38.17;;;19.30;;
30303;SDS011;17112;48.636;10.152;2024-03-08T09:31:13;38.05;;;19.60;;
30303;SDS011;17112;48.636;10.152;2024-03-08T09:33:38;38.72;;;20.05;;
30303;SDS011;17112;48.636;10.152;2024-03-08T09:36:07;40.28;;;20.83;;
30303;SDS011;17112;48.636;10.152;2024-03-08T09:38:33;39.33;;;19.33;;
30303;SDS011;17112;48.636;10.152;2024-03-08T09:41:02;37.33;;;20.02;;
30303;SDS011;17112;48.636;10.152;2024-03-08T09:43:29;40.25;;;20.90;;
30303;SDS011;17112;48.636;10.152;2024-03-08T09:45:55;39.08;;;20.35;;
30303;SDS011;17112;48.636;10.152;2024-03-08T09:48:22;36.83;;;19.52;;
30303;SDS011;17112;48.636;10.152;2024-03-08T09:50:48;38.15;;;19.48;;
30303;SDS011;17112;48.636;10.152;2024-03-08T09:53:14;38.83;;;21.05;;
30303;SDS011;17112;48.636;10.152;2024-03-08T09:55:41;38.60;;;19.60;;
30303;SDS011;17112;48.636;10.152;2024-03-08T09:58:10;33.60;;;19.15;;
30303;SDS011;17112;48.636;10.152;2024-03-08T10:01:07;37.53;;;19.30;;
30303;SDS011;17112;48.636;10.152;2024-03-08T10:03:33;35.67;;;20.35;;
30303;SDS011;17112;48.636;10.152;2024-03-08T10:05:59;34.95;;;19.90;;
30303;SDS011;17112;48.636;10.152;2024-03-08T10:08:28;38.20;;;20.50;;
30303;SDS011;17112;48.636;10.152;2024-03-08T10:10:55;40.92;;;20.60;;
30303;SDS011;17112;48.636;10.152;2024-03-08T10:13:23;36.63;;;20.58;;
30303;SDS011;17112;48.636;10.152;2024-03-08T10:15:52;40.17;;;21.23;;
30303;SDS011;17112;48.636;10.152;2024-03-08T10:18:17;36.60;;;20.55;;
30303;SDS011;17112;48.636;10.152;2024-03-08T10:20:43;37.67;;;20.00;;
30303;SDS011;17112;48.636;10.152;2024-03-08T10:23:09;39.40;;;20.45;;
30303;SDS011;17112;48.636;10.152;2024-03-08T10:25:35;36.92;;;19.75;;
30303;SDS011;17112;48.636;10.152;2024-03-08T10:28:04;38.42;;;21.77;;
30303;SDS011;17112;48.636;10.152;2024-03-08T10:30:30;35.05;;;19.98;;
30303;SDS011;17112;48.636;10.152;2024-03-08T10:32:56;40.55;;;20.40;;
30303;SDS011;17112;48.636;10.152;2024-03-08T10:35:22;36.22;;;20.27;;
30303;SDS011;17112;48.636;10.152;2024-03-08T10:37:49;38.00;;;19.40;;
30303;SDS011;17112;48.636;10.152;2024-03-08T10:40:23;38.00;;;20.33;;
30303;SDS011;17112;48.636;10.152;2024-03-08T10:42:56;45.30;;;21.35;;
30303;SDS011;17112;48.636;10.152;2024-03-08T10:48:25;39.65;;;20.10;;
30303;SDS011;17112;48.636;10.152;2024-03-08T10:50:57;24.20;;;13.77;;
30303;SDS011;17112;48.636;10.152;2024-03-08T10:53:27;34.40;;;19.83;;
30303;SDS011;17112;48.636;10.152;2024-03-08T10:55:55;39.53;;;19.60;;
30303;SDS011;17112;48.636;10.152;2024-03-08T10:58:22;34.28;;;19.90;;
30303;SDS011;17112;48.636;10.152;2024-03-08T11:00:56;34.70;;;18.60;;
30303;SDS011;17112;48.636;10.152;2024-03-08T11:06:23;33.08;;;18.58;;
30303;SDS011;17112;48.636;10.152;2024-03-08T11:09:25;36.63;;;20.98;;
30303;SDS011;17112;48.636;10.152;2024-03-08T11:12:19;36.45;;;19.80;;
30303;SDS011;17112;48.636;10.152;2024-03-08T11:14:47;36.03;;;20.92;;
30303;SDS011;17112;48.636;10.152;2024-03-08T11:17:59;37.08;;;19.80;;
30303;SDS011;17112;48.636;10.152;2024-03-08T11:20:03;32.15;;;18.85;;
30303;SDS011;17112;48.636;10.152;2024-03-08T11:22:52;35.72;;;20.10;;
30303;SDS011;17112;48.636;10.152;2024-03-08T11:25:37;34.75;;;21.40;;
30303;SDS011;17112;48.636;10.152;2024-03-08T11:30:45;33.35;;;18.83;;
30303;SDS011;17112;48.636;10.152;2024-03-08T11:33:14;32.13;;;19.45;;
30303;SDS011;17112;48.636;10.152;2024-03-08T11:35:41;31.45;;;20.23;;
30303;SDS011;17112;48.636;10.152;2024-03-08T11:38:10;32.72;;;20.77;;
30303;SDS011;17112;48.636;10.152;2024-03-08T11:40:38;34.30;;;19.85;;
30303;SDS011;17112;48.636;10.152;2024-03-08T11:43:05;32.40;;;19.80;;
30303;SDS011;17112;48.636;10.152;2024-03-08T11:45:35;32.50;;;20.20;;
30303;SDS011;17112;48.636;10.152;2024-03-08T11:48:06;29.38;;;18.83;;
30303;SDS011;17112;48.636;10.152;2024-03-08T11:50:33;30.50;;;19.50;;
30303;SDS011;17112;48.636;10.152;2024-03-08T11:53:05;28.85;;;18.67;;
30303;SDS011;17112;48.636;10.152;2024-03-08T11:55:31;31.98;;;19.30;;
30303;SDS011;17112;48.636;10.152;2024-03-08T11:58:04;31.02;;;19.00;;
30303;SDS011;17112;48.636;10.152;2024-03-08T12:00:33;31.20;;;18.48;;
30303;SDS011;17112;48.636;10.152;2024-03-08T12:03:03;33.60;;;19.80;;
30303;SDS011;17112;48.636;10.152;2024-03-08T12:05:31;33.50;;;19.75;;
30303;SDS011;17112;48.636;10.152;2024-03-08T12:07:58;32.13;;;19.75;;
30303;SDS011;17112;48.636;10.152;2024-03-08T12:10:25;28.25;;;19.13;;
30303;SDS011;17112;48.636;10.152;2024-03-08T12:12:54;30.40;;;19.55;;
30303;SDS011;17112;48.636;10.152;2024-03-08T12:15:24;32.22;;;19.05;;
30303;SDS011;17112;48.636;10.152;2024-03-08T12:17:51;26.90;;;18.10;;
30303;SDS011;17112;48.636;10.152;2024-03-08T12:20:21;30.73;;;19.42;;
30303;SDS011;17112;48.636;10.152;2024-03-08T12:22:52;31.33;;;19.67;;
30303;SDS011;17112;48.636;10.152;2024-03-08T12:25:19;31.95;;;20.08;;
30303;SDS011;17112;48.636;10.152;2024-03-08T12:27:45;32.90;;;20.15;;
30303;SDS011;17112;48.636;10.152;2024-03-08T12:32:47;28.08;;;18.70;;
30303;SDS011;17112;48.636;10.152;2024-03-08T12:35:25;28.05;;;18.25;;
30303;SDS011;17112;48.636;10.152;2024-03-08T12:37:52;32.80;;;19.13;;
30303;SDS011;17112;48.636;10.152;2024-03-08T12:40:24;34.15;;;19.15;;
30303;SDS011;17112;48.636;10.152;2024-03-08T12:42:56;26.48;;;16.73;;
30303;SDS011;17112;48.636;10.152;2024-03-08T12:45:26;30.27;;;17.85;;
30303;SDS011;17112;48.636;10.152;2024-03-08T12:47:53;30.27;;;19.63;;
30303;SDS011;17112;48.636;10.152;2024-03-08T12:50:20;29.35;;;18.67;;
30303;SDS011;17112;48.636;10.152;2024-03-08T12:52:46;32.78;;;19.83;;
30303;SDS011;17112;48.636;10.152;2024-03-08T12:55:13;28.17;;;18.13;;
30303;SDS011;17112;48.636;10.152;2024-03-08T12:57:41;41.65;;;24.27;;
30303;SDS011;17112;48.636;10.152;2024-03-08T13:00:08;36.20;;;22.38;;
30303;SDS011;17112;48.636;10.152;2024-03-08T13:02:38;29.80;;;18.50;;
30303;SDS011;17112;48.636;10.152;2024-03-08T13:05:05;30.77;;;19.15;;
30303;SDS011;17112;48.636;10.152;2024-03-08T13:07:34;26.90;;;17.65;;
30303;SDS011;17112;48.636;10.152;2024-03-08T13:10:00;26.15;;;17.73;;
30303;SDS011;17112;48.636;10.152;2024-03-08T13:12:26;30.42;;;18.70;;
30303;SDS011;17112;48.636;10.152;2024-03-08T13:14:52;27.77;;;18.65;;
30303;SDS011;17112;48.636;10.152;2024-03-08T13:17:21;26.40;;;17.23;;
30303;SDS011;17112;48.636;10.152;2024-03-08T13:19:47;27.10;;;17.73;;
30303;SDS011;17112;48.636;10.152;2024-03-08T13:22:13;30.00;;;18.95;;
30303;SDS011;17112;48.636;10.152;2024-03-08T13:24:44;27.38;;;18.50;;
30303;SDS011;17112;48.636;10.152;2024-03-08T13:27:10;29.75;;;18.70;;
30303;SDS011;17112;48.636;10.152;2024-03-08T13:29:45;28.67;;;17.38;;
30303;SDS011;17112;48.636;10.152;2024-03-08T13:32:12;26.70;;;18.58;;
30303;SDS011;17112;48.636;10.152;2024-03-08T13:34:42;27.00;;;17.67;;
30303;SDS011;17112;48.636;10.152;2024-03-08T13:37:08;32.45;;;20.90;;
30303;SDS011;17112;48.636;10.152;2024-03-08T13:39:35;34.50;;;20.70;;
30303;SDS011;17112;48.636;10.152;2024-03-08T13:42:10;36.20;;;21.75;;
30303;SDS011;17112;48.636;10.152;2024-03-08T13:44:47;29.90;;;19.10;;
30303;SDS011;17112;48.636;10.152;2024-03-08T13:47:17;24.80;;;16.63;;
30303;SDS011;17112;48.636;10.152;2024-03-08T13:49:43;31.85;;;18.83;;
30303;SDS011;17112;48.636;10.152;2024-03-08T13:52:11;26.20;;;16.77;;
30303;SDS011;17112;48.636;10.152;2024-03-08T13:54:41;24.10;;;16.08;;
30303;SDS011;17112;48.636;10.152;2024-03-08T13:57:07;24.02;;;15.70;;
30303;SDS011;17112;48.636;10.152;2024-03-08T13:59:33;27.58;;;16.60;;
30303;SDS011;17112;48.636;10.152;2024-03-08T14:02:00;19.65;;;14.32;;
30303;SDS011;17112;48.636;10.152;2024-03-08T14:04:27;23.30;;;15.50;;
30303;SDS011;17112;48.636;10.152;2024-03-08T14:06:53;22.80;;;14.70;;
30303;SDS011;17112;48.636;10.152;2024-03-08T14:09:26;25.90;;;16.02;;
30303;SDS011;17112;48.636;10.152;2024-03-08T14:11:54;26.00;;;15.75;;
30303;SDS011;17112;48.636;10.152;2024-03-08T14:14:23;21.17;;;14.27;;
30303;SDS011;17112;48.636;10.152;2024-03-08T14:16:49;25.10;;;14.88;;
30303;SDS011;17112;48.636;10.152;2024-03-08T14:19:20;21.08;;;14.52;;
30303;SDS011;17112;48.636;10.152;2024-03-08T14:21:46;21.65;;;13.98;;
30303;SDS011;17112;48.636;10.152;2024-03-08T14:24:18;20.88;;;14.35;;